Time;durP1;ratioP1;P1;durP2;ratioP2;P2;SDS_P1;SDS_P2;PMS_P1;PMS_P2;Temp;Humidity;BMP_temperature;BMP_pressure;BME280_temperature;BME280_humidity;BME280_pressure;Samples;Min_cycle;Max_cycle;Signal;HPM_P1;HPM_P2
2020/12/11 00:02:05;;;;;;;28.77;18.43;;;0.80;84.80;;;;;;5131489;27;20049;-78
2020/12/11 00:04:30;;;;;;;26.27;17.23;;;0.90;84.90;;;;;;5097041;27;20030;-78
2020/12/11 00:06:57;;;;;;;28.73;19.13;;;0.90;84.70;;;;;;5133133;27;20037;-78
2020/12/11 00:09:24;;;;;;;25.93;17.77;;;0.90;84.60;;;;;;5113418;27;20054;-78
2020/12/11 00:11:49;;;;;;;32.03;19.00;;;1.00;84.30;;;;;;5113534;27;20030;-78
2020/12/11 00:14:15;;;;;;;25.30;17.47;;;1.00;84.10;;;;;;5133813;27;20027;-79
2020/12/11 00:16:41;;;;;;;29.23;18.33;;;1.00;84.00;;;;;;5133305;27;20079;-78
2020/12/11 00:19:06;;;;;;;30.67;18.27;;;0.90;83.90;;;;;;5094507;27;20039;-79
2020/12/11 00:21:43;;;;;;;27.70;18.17;;;0.90;84.00;;;;;;5115403;27;20015;-78
2020/12/11 00:24:11;;;;;;;29.87;17.97;;;1.00;84.10;;;;;;5113398;27;20076;-78
2020/12/11 00:26:37;;;;;;;27.43;18.33;;;1.00;83.90;;;;;;5116977;27;20020;-79
2020/12/11 00:29:03;;;;;;;25.87;17.77;;;1.00;83.80;;;;;;5096801;27;20095;-79
2020/12/11 00:31:29;;;;;;;26.17;17.27;;;1.00;83.70;;;;;;5123607;27;20510;-79
2020/12/11 00:33:55;;;;;;;28.20;18.07;;;1.10;83.70;;;;;;5097538;27;20055;-79
2020/12/11 00:36:24;;;;;;;30.97;19.17;;;1.10;83.60;;;;;;5114560;27;20031;-78
2020/12/11 00:38:50;;;;;;;27.20;17.83;;;1.10;83.50;;;;;;5111989;27;20479;-78
2020/12/11 00:41:16;;;;;;;25.97;17.13;;;1.10;83.60;;;;;;5097723;27;20027;-78
2020/12/11 00:43:42;;;;;;;24.93;17.67;;;1.10;83.60;;;;;;5132340;27;20027;-78
2020/12/11 00:46:08;;;;;;;29.03;18.40;;;1.00;83.50;;;;;;5113499;27;20046;-78
2020/12/11 00:48:34;;;;;;;28.33;18.83;;;1.10;83.50;;;;;;5113039;27;20031;-78
2020/12/11 00:51:00;;;;;;;28.57;17.63;;;1.10;83.40;;;;;;5113926;27;20034;-78
2020/12/11 00:53:25;;;;;;;28.73;18.30;;;1.10;83.50;;;;;;5130011;27;20455;-79
2020/12/11 00:55:52;;;;;;;26.37;17.63;;;1.10;83.50;;;;;;5114088;27;20470;-79
2020/12/11 00:58:18;;;;;;;29.10;18.67;;;1.10;83.30;;;;;;5112402;28;20031;-79
2020/12/11 01:00:43;;;;;;;26.03;17.33;;;1.20;83.30;;;;;;5097628;27;20027;-79
2020/12/11 01:03:09;;;;;;;24.83;16.63;;;1.20;83.30;;;;;;5130350;27;20070;-79
2020/12/11 01:05:35;;;;;;;24.93;16.30;;;1.20;83.20;;;;;;5114715;27;20466;-79
2020/12/11 01:08:02;;;;;;;28.40;17.40;;;1.20;83.00;;;;;;5131385;27;20471;-78
2020/12/11 01:10:28;;;;;;;29.00;18.43;;;1.20;83.20;;;;;;5093584;28;20024;-78
2020/12/11 01:12:54;;;;;;;26.60;17.70;;;1.10;83.10;;;;;;5111540;27;20024;-78
2020/12/11 01:15:19;;;;;;;31.13;18.30;;;1.10;83.20;;;;;;5093484;28;20028;-78
2020/12/11 01:17:45;;;;;;;28.83;17.83;;;1.10;83.30;;;;;;5096694;27;20088;-79
2020/12/11 01:20:10;;;;;;;25.57;16.80;;;1.20;83.30;;;;;;5095785;27;20054;-78
2020/12/11 01:22:36;;;;;;;27.80;17.20;;;1.10;83.20;;;;;;5093897;28;20035;-79
2020/12/11 01:25:02;;;;;;;24.63;17.13;;;1.10;83.30;;;;;;5111974;27;20393;-79
2020/12/11 01:27:28;;;;;;;25.97;16.20;;;1.10;83.40;;;;;;5133386;27;20027;-80
2020/12/11 01:29:54;;;;;;;27.03;17.37;;;1.10;83.40;;;;;;5115352;27;20390;-79
2020/12/11 01:32:19;;;;;;;26.70;17.03;;;1.10;83.40;;;;;;5099212;27;20114;-79
2020/12/11 01:34:45;;;;;;;24.87;16.33;;;1.10;83.50;;;;;;5096798;27;20044;-78
2020/12/11 01:37:10;;;;;;;29.30;17.83;;;1.10;83.30;;;;;;5113398;27;20023;-78
2020/12/11 01:39:36;;;;;;;25.30;17.17;;;1.10;83.20;;;;;;5112825;27;20538;-79
2020/12/11 01:42:11;;;;;;;24.27;15.70;;;1.10;83.20;;;;;;5112816;27;20083;-78
2020/12/11 01:44:36;;;;;;;28.17;17.40;;;1.10;83.20;;;;;;5130141;27;20037;-78
2020/12/11 01:47:02;;;;;;;25.27;16.70;;;1.10;83.20;;;;;;5092183;27;20126;-78
2020/12/11 01:49:28;;;;;;;28.70;18.43;;;1.10;83.30;;;;;;5095907;27;20031;-78
2020/12/11 01:51:54;;;;;;;27.30;18.03;;;1.10;83.30;;;;;;5131683;27;20490;-78
2020/12/11 01:54:20;;;;;;;25.40;17.43;;;1.00;83.50;;;;;;5111867;27;20054;-78
2020/12/11 01:57:04;;;;;;;26.03;17.33;;;1.00;83.40;;;;;;5093067;28;20039;-79
2020/12/11 01:59:36;;;;;;;27.30;17.13;;;1.10;83.50;;;;;;5103991;27;20062;-78
2020/12/11 02:02:04;;;;;;;25.77;17.37;;;1.00;83.50;;;;;;5130606;27;20182;-79
2020/12/11 02:04:35;;;;;;;29.50;17.67;;;1.00;83.40;;;;;;5112980;28;20467;-78
2020/12/11 02:07:01;;;;;;;27.23;17.90;;;0.90;83.50;;;;;;5110824;28;20046;-78
2020/12/11 02:09:30;;;;;;;26.77;17.50;;;0.90;83.60;;;;;;5130143;27;20060;-78
2020/12/11 02:11:56;;;;;;;25.23;16.93;;;0.90;83.60;;;;;;5130539;28;20512;-78
2020/12/11 02:14:22;;;;;;;27.73;17.10;;;0.90;83.70;;;;;;5093309;28;20116;-79
2020/12/11 02:16:48;;;;;;;23.63;16.47;;;0.90;83.70;;;;;;5112566;28;20031;-79
2020/12/11 02:19:14;;;;;;;27.93;17.17;;;0.90;83.70;;;;;;5110569;28;20066;-78
2020/12/11 02:21:39;;;;;;;23.80;17.13;;;0.90;83.70;;;;;;5111297;28;20054;-77
2020/12/11 02:24:05;;;;;;;27.07;17.90;;;0.80;83.80;;;;;;5094020;28;20035;-78
2020/12/11 02:26:31;;;;;;;28.40;18.33;;;0.80;83.80;;;;;;5113128;28;20023;-76
2020/12/11 02:28:56;;;;;;;25.97;17.10;;;0.80;83.80;;;;;;5094103;28;20035;-76
2020/12/11 02:31:22;;;;;;;24.50;16.57;;;0.80;83.80;;;;;;5132830;28;20035;-76
2020/12/11 02:33:47;;;;;;;25.87;17.43;;;0.80;83.80;;;;;;5126498;28;20027;-77
2020/12/11 02:36:13;;;;;;;25.57;16.83;;;0.80;83.80;;;;;;5127084;28;20030;-76
2020/12/11 02:38:39;;;;;;;25.00;16.93;;;0.80;83.80;;;;;;5110202;28;20035;-79
2020/12/11 02:41:08;;;;;;;26.00;16.77;;;0.80;83.80;;;;;;5116494;28;20115;-77
2020/12/11 02:43:37;;;;;;;25.37;17.33;;;0.80;84.30;;;;;;5092030;28;20020;-77
2020/12/11 02:46:04;;;;;;;25.20;16.90;;;0.80;83.90;;;;;;5090868;28;20040;-77
2020/12/11 02:48:29;;;;;;;23.50;16.13;;;0.70;83.90;;;;;;5102426;28;20023;-77
2020/12/11 02:50:57;;;;;;;24.87;16.60;;;0.70;84.10;;;;;;5109768;28;20035;-77
2020/12/11 02:53:23;;;;;;;28.53;16.87;;;0.70;84.20;;;;;;5129680;28;20035;-77
2020/12/11 02:55:48;;;;;;;23.03;16.60;;;0.60;84.30;;;;;;5130909;28;20032;-77
2020/12/11 02:58:14;;;;;;;23.70;16.10;;;0.60;84.30;;;;;;5089975;28;20035;-77
2020/12/11 03:00:39;;;;;;;25.47;16.97;;;0.60;84.30;;;;;;5091803;28;20028;-78
2020/12/11 03:03:05;;;;;;;27.67;16.70;;;0.60;84.50;;;;;;5071451;28;908860;-77
2020/12/11 03:05:31;;;;;;;28.37;17.43;;;0.60;84.50;;;;;;5079071;28;20035;-78
2020/12/11 03:07:56;;;;;;;24.83;16.40;;;0.60;84.60;;;;;;5111315;28;20026;-76
2020/12/11 03:10:22;;;;;;;30.27;17.50;;;0.60;84.50;;;;;;5097545;28;20066;-79
2020/12/11 03:12:47;;;;;;;24.57;16.30;;;0.60;84.60;;;;;;5077689;28;20118;-78
2020/12/11 03:15:13;;;;;;;26.67;17.57;;;0.60;84.80;;;;;;5108826;28;20067;-78
2020/12/11 03:17:39;;;;;;;24.87;16.13;;;0.60;84.70;;;;;;5091361;28;20035;-77
2020/12/11 03:20:04;;;;;;;26.50;16.47;;;0.60;84.80;;;;;;5129757;28;20390;-77
2020/12/11 03:22:30;;;;;;;27.63;17.20;;;0.60;84.70;;;;;;5096538;27;20041;-78
2020/12/11 03:24:55;;;;;;;22.70;15.67;;;0.60;84.70;;;;;;5078944;28;20541;-77
2020/12/11 03:27:21;;;;;;;24.70;16.07;;;0.50;84.70;;;;;;5105149;27;20035;-78
2020/12/11 03:29:47;;;;;;;26.27;17.37;;;0.60;84.80;;;;;;5117263;27;20043;-77
2020/12/11 03:32:12;;;;;;;24.67;16.57;;;0.50;84.80;;;;;;5115115;27;20035;-77
2020/12/11 03:34:38;;;;;;;23.67;16.30;;;0.50;84.90;;;;;;5078417;28;20031;-77
2020/12/11 03:37:04;;;;;;;26.77;17.87;;;0.50;85.10;;;;;;5095398;28;20096;-77
2020/12/11 03:39:29;;;;;;;24.97;16.40;;;0.50;85.10;;;;;;5115512;27;20501;-77
2020/12/11 03:41:55;;;;;;;27.33;17.90;;;0.50;85.00;;;;;;5097280;27;20023;-77
2020/12/11 03:44:21;;;;;;;23.83;16.73;;;0.40;85.00;;;;;;5115154;27;20102;-78
2020/12/11 03:46:46;;;;;;;27.83;17.43;;;0.40;85.00;;;;;;5115429;27;20443;-78
2020/12/11 03:49:12;;;;;;;27.57;17.90;;;0.40;85.10;;;;;;5113260;27;20394;-77
2020/12/11 03:51:38;;;;;;;26.80;17.50;;;0.40;85.20;;;;;;5116278;27;20118;-76
2020/12/11 03:54:04;;;;;;;26.83;17.33;;;0.40;85.20;;;;;;5114489;27;20030;-77
2020/12/11 03:56:30;;;;;;;27.73;18.47;;;0.40;85.10;;;;;;5116180;27;20050;-78
2020/12/11 03:58:55;;;;;;;26.43;17.33;;;0.30;85.20;;;;;;5114704;27;20035;-77
2020/12/11 04:01:22;;;;;;;28.20;17.80;;;0.30;85.30;;;;;;5132773;27;20462;-78
2020/12/11 04:03:47;;;;;;;26.70;17.67;;;0.30;85.30;;;;;;5095408;27;20034;-77
2020/12/11 04:06:16;;;;;;;25.60;18.00;;;0.30;85.50;;;;;;5097774;27;20027;-77
2020/12/11 04:08:42;;;;;;;28.47;19.23;;;0.30;85.40;;;;;;5114928;27;20035;-77
2020/12/11 04:11:10;;;;;;;27.63;18.33;;;0.30;85.40;;;;;;5097738;28;20024;-77
2020/12/11 04:13:36;;;;;;;28.63;17.37;;;0.40;85.60;;;;;;5112317;28;20050;-77
2020/12/11 04:16:02;;;;;;;27.60;18.57;;;0.40;85.50;;;;;;5113258;27;20128;-76
2020/12/11 04:18:28;;;;;;;29.70;19.13;;;0.40;85.40;;;;;;5113541;27;20023;-77
2020/12/11 04:20:56;;;;;;;32.00;19.73;;;0.50;85.30;;;;;;5134161;27;20028;-77
2020/12/11 04:23:22;;;;;;;29.47;19.13;;;0.50;85.10;;;;;;5132224;27;20019;-76
2020/12/11 04:25:48;;;;;;;29.83;19.50;;;0.60;85.00;;;;;;5115516;27;20036;-77
2020/12/11 04:28:13;;;;;;;28.60;18.80;;;0.60;84.80;;;;;;5131688;27;20077;-77
2020/12/11 04:30:39;;;;;;;28.20;18.17;;;0.60;84.80;;;;;;5115442;27;20118;-77
2020/12/11 04:33:05;;;;;;;30.67;19.40;;;0.60;84.90;;;;;;5113317;27;20424;-77
2020/12/11 04:35:30;;;;;;;30.73;20.20;;;0.60;84.90;;;;;;5098393;27;20088;-77
2020/12/11 04:37:56;;;;;;;29.80;19.53;;;0.60;84.90;;;;;;5113537;27;20023;-77
2020/12/11 04:40:22;;;;;;;28.07;19.40;;;0.60;85.00;;;;;;5097159;27;20039;-77
2020/12/11 04:42:47;;;;;;;28.13;19.23;;;0.60;84.80;;;;;;5113341;27;20060;-77
2020/12/11 04:45:13;;;;;;;29.70;18.80;;;0.60;84.80;;;;;;5113413;27;20133;-77
2020/12/11 04:47:46;;;;;;;31.77;20.20;;;0.60;84.80;;;;;;5079431;27;20042;-76
2020/12/11 04:50:17;;;;;;;30.80;19.38;;;0.60;84.90;;;;;;5131366;27;20023;-77
2020/12/11 04:52:44;;;;;;;29.97;19.33;;;0.60;84.90;;;;;;5113531;27;20412;-76
2020/12/11 04:55:18;;;;;;;29.37;20.50;;;0.60;84.90;;;;;;5132241;27;20057;-76
2020/12/11 04:57:54;;;;;;;32.37;20.03;;;0.60;84.80;;;;;;5131957;27;20124;-77
2020/12/11 05:00:22;;;;;;;31.97;20.33;;;0.70;84.70;;;;;;5132188;27;20618;-77
2020/12/11 05:02:48;;;;;;;29.20;19.13;;;0.70;84.70;;;;;;5105172;28;20043;-77
2020/12/11 05:05:15;;;;;;;29.70;19.10;;;0.70;84.50;;;;;;5088730;28;20023;-77
2020/12/11 05:07:43;;;;;;;30.77;19.37;;;0.70;84.50;;;;;;5118436;27;20448;-77
2020/12/11 05:10:11;;;;;;;30.20;19.77;;;0.80;84.50;;;;;;5112394;27;20039;-76
2020/12/11 05:12:37;;;;;;;28.13;19.27;;;0.90;84.40;;;;;;5114518;27;20030;-77
2020/12/11 05:15:04;;;;;;;29.30;19.13;;;0.90;84.00;;;;;;5112247;27;20079;-77
2020/12/11 05:17:32;;;;;;;27.43;18.13;;;1.00;83.80;;;;;;5114231;27;20023;-77
2020/12/11 05:19:59;;;;;;;27.70;17.27;;;1.10;83.50;;;;;;5113735;27;20547;-76
2020/12/11 05:22:30;;;;;;;29.40;19.60;;;1.10;83.20;;;;;;5114315;27;20213;-77
2020/12/11 05:24:59;;;;;;;27.77;18.37;;;1.20;83.10;;;;;;5111776;27;20031;-77
2020/12/11 05:27:36;;;;;;;26.43;17.87;;;1.20;83.10;;;;;;5113965;27;20050;-77
2020/12/11 05:30:15;;;;;;;27.00;17.33;;;1.20;82.80;;;;;;5113268;27;20486;-76
2020/12/11 05:32:41;;;;;;;26.77;17.87;;;1.20;82.80;;;;;;5113242;27;20031;-76
2020/12/11 05:35:22;;;;;;;27.33;18.50;;;1.30;82.80;;;;;;5113276;27;20027;-76
2020/12/11 05:38:03;;;;;;;26.80;17.80;;;1.30;82.70;;;;;;5115851;27;20042;-77
2020/12/11 05:40:33;;;;;;;26.90;17.63;;;1.30;82.70;;;;;;5111170;27;20399;-77
2020/12/11 05:43:17;;;;;;;26.33;18.03;;;1.30;82.60;;;;;;5131710;27;20031;-76
2020/12/11 05:45:45;;;;;;;;;;;1.30;82.60;;;;;;5113128;27;20038;-77
2020/12/11 05:48:11;;;;;;;27.80;17.20;;;1.30;82.70;;;;;;5111166;27;19958;-76
2020/12/11 05:50:37;;;;;;;26.67;17.80;;;1.30;82.50;;;;;;5131298;27;20066;-77
2020/12/11 05:53:02;;;;;;;26.90;16.83;;;1.30;82.30;;;;;;5095984;27;20035;-77
2020/12/11 05:55:28;;;;;;;25.33;17.80;;;1.30;82.50;;;;;;5096076;27;20034;-77
2020/12/11 05:57:55;;;;;;;27.50;17.80;;;1.30;82.50;;;;;;5112749;27;20061;-77
2020/12/11 06:00:22;;;;;;;28.00;18.70;;;1.20;82.60;;;;;;5131171;27;20753;-78
2020/12/11 06:02:49;;;;;;;29.07;18.57;;;1.20;82.70;;;;;;5112628;27;20058;-76
2020/12/11 06:05:16;;;;;;;27.10;17.50;;;1.20;82.80;;;;;;5112742;27;20023;-76
2020/12/11 06:07:44;;;;;;;28.00;17.87;;;1.20;82.90;;;;;;5079073;27;20073;-76
2020/12/11 06:10:16;;;;;;;32.57;20.70;;;1.10;83.00;;;;;;5130866;27;20027;-77
2020/12/11 06:12:42;;;;;;;27.48;18.52;;;1.10;83.00;;;;;;5112472;27;20091;-78
2020/12/11 06:15:34;;;;;;;28.27;17.80;;;1.20;83.00;;;;;;5110313;27;20049;-78
2020/12/11 06:18:13;;;;;;;29.77;18.90;;;1.20;83.00;;;;;;5130962;27;20035;-78
2020/12/11 06:20:39;;;;;;;28.90;17.80;;;1.20;82.90;;;;;;5113058;28;20043;-77
2020/12/11 06:23:28;;;;;;;27.70;18.63;;;1.20;82.80;;;;;;5111688;27;20056;-77
2020/12/11 06:25:58;;;;;;;26.10;17.60;;;1.20;82.80;;;;;;5113266;27;20117;-78
2020/12/11 06:28:40;;;;;;;30.57;19.30;;;1.20;82.80;;;;;;5092206;28;20104;-77
2020/12/11 06:31:17;;;;;;;28.30;17.90;;;1.20;82.80;;;;;;5096128;27;20058;-78
2020/12/11 06:33:46;;;;;;;29.70;19.00;;;1.20;82.70;;;;;;5098468;28;20028;-78
2020/12/11 06:36:13;;;;;;;30.77;20.07;;;1.20;82.60;;;;;;5109494;28;20400;-77
2020/12/11 06:38:49;;;;;;;29.73;18.50;;;1.20;82.60;;;;;;5101107;27;20232;-78
2020/12/11 06:41:34;;;;;;;29.07;18.93;;;1.20;82.70;;;;;;5130758;27;20470;-77
2020/12/11 06:44:12;;;;;;;29.33;17.77;;;1.30;82.70;;;;;;5111753;28;20121;-78
2020/12/11 06:46:38;;;;;;;26.83;18.03;;;1.30;82.70;;;;;;5112251;28;20113;-78
2020/12/11 06:49:19;;;;;;;28.03;18.23;;;1.30;83.20;;;;;;5092048;28;20122;-77
2020/12/11 06:51:45;;;;;;;28.37;18.50;;;1.30;82.70;;;;;;5092661;28;20018;-77
2020/12/11 06:54:11;;;;;;;31.07;19.57;;;1.30;82.60;;;;;;5113763;28;20115;-77
2020/12/11 06:56:43;;;;;;;28.87;19.07;;;1.40;82.60;;;;;;5094248;27;20064;-78
2020/12/11 06:59:28;;;;;;;31.98;18.92;;;1.40;82.60;;;;;;5102546;28;20027;-78
2020/12/11 07:02:15;;;;;;;30.97;19.27;;;1.40;82.60;;;;;;5114991;27;20058;-77
2020/12/11 07:04:50;;;;;;;28.67;18.83;;;1.40;82.70;;;;;;5115182;27;20031;-77
2020/12/11 07:07:21;;;;;;;30.07;19.17;;;1.50;82.50;;;;;;5114805;27;20062;-77
2020/12/11 07:09:49;;;;;;;32.83;20.67;;;1.50;82.50;;;;;;5116850;27;20480;-77
2020/12/11 07:12:15;;;;;;;32.23;20.03;;;1.50;82.40;;;;;;5112326;27;20023;-77
2020/12/11 07:14:45;;;;;;;28.73;18.63;;;1.60;82.40;;;;;;5114634;27;20028;-77
2020/12/11 07:17:22;;;;;;;31.03;18.83;;;1.70;82.30;;;;;;5133473;27;20034;-77
2020/12/11 07:19:48;;;;;;;32.57;19.80;;;1.70;82.20;;;;;;5114290;27;20035;-77
2020/12/11 07:22:15;;;;;;;31.13;19.53;;;1.80;82.00;;;;;;5115803;27;20072;-77
2020/12/11 07:24:40;;;;;;;33.07;20.40;;;1.80;81.80;;;;;;5115813;27;20035;-77
2020/12/11 07:27:06;;;;;;;30.70;19.20;;;1.90;81.70;;;;;;5098226;27;20035;-77
2020/12/11 07:29:34;;;;;;;28.67;18.63;;;2.00;81.40;;;;;;5113854;27;20033;-78
2020/12/11 07:31:59;;;;;;;28.10;19.57;;;2.00;81.10;;;;;;5097084;27;20359;-76
2020/12/11 07:34:27;;;;;;;30.27;19.53;;;2.10;81.00;;;;;;5112258;27;20031;-76
2020/12/11 07:36:56;;;;;;;36.33;21.17;;;2.10;80.80;;;;;;5136055;27;20023;-77
2020/12/11 07:39:26;;;;;;;27.53;17.70;;;2.20;80.90;;;;;;5114546;27;20042;-77
2020/12/11 07:41:53;;;;;;;27.87;18.00;;;2.30;80.60;;;;;;5110641;27;20023;-76
2020/12/11 07:44:23;;;;;;;26.07;17.83;;;2.30;80.50;;;;;;5101768;27;20028;-77
2020/12/11 07:46:50;;;;;;;26.10;17.13;;;2.30;80.40;;;;;;5116240;27;20015;-77
2020/12/11 07:49:15;;;;;;;29.60;19.27;;;2.40;80.50;;;;;;5078222;27;20054;-76
2020/12/11 07:51:49;;;;;;;27.23;18.43;;;2.40;80.60;;;;;;5108917;27;20582;-77
2020/12/11 07:54:15;;;;;;;26.83;18.50;;;2.40;80.90;;;;;;5098384;27;20106;-76
2020/12/11 07:56:41;;;;;;;27.03;18.67;;;2.40;80.70;;;;;;5078493;28;20059;-76
2020/12/11 07:59:11;;;;;;;25.37;18.07;;;2.40;80.30;;;;;;5095022;28;20055;-76
2020/12/11 08:01:38;;;;;;;25.23;17.97;;;2.40;80.40;;;;;;5131748;27;20092;-77
2020/12/11 08:04:04;;;;;;;26.07;17.80;;;2.50;80.40;;;;;;5131809;27;20458;-77
2020/12/11 08:06:31;;;;;;;26.80;17.70;;;2.50;80.30;;;;;;5132306;27;20039;-76
2020/12/11 08:08:56;;;;;;;25.30;17.53;;;2.50;80.30;;;;;;5097330;27;20415;-77
2020/12/11 08:11:26;;;;;;;25.33;17.50;;;2.50;80.10;;;;;;5093479;27;20114;-77
2020/12/11 08:13:59;;;;;;;22.93;16.40;;;2.50;80.30;;;;;;5089376;27;20024;-75
2020/12/11 08:16:27;;;;;;;24.97;17.03;;;2.50;80.20;;;;;;5087251;27;20044;-76
2020/12/11 08:18:53;;;;;;;27.57;18.43;;;2.50;80.40;;;;;;5105607;27;20118;-76
2020/12/11 08:21:32;;;;;;;24.27;17.30;;;2.50;80.30;;;;;;5087394;27;20035;-76
2020/12/11 08:23:59;;;;;;;24.13;16.80;;;2.50;80.30;;;;;;5107823;27;20080;-76
2020/12/11 08:26:26;;;;;;;23.87;16.27;;;2.50;80.40;;;;;;5113156;27;20031;-76
2020/12/11 08:29:05;;;;;;;23.93;17.33;;;2.50;80.50;;;;;;5109311;27;20031;-77
2020/12/11 08:31:40;;;;;;;23.97;16.13;;;2.50;80.40;;;;;;5127555;27;20059;-76
2020/12/11 08:34:11;;;;;;;24.43;17.10;;;2.60;80.40;;;;;;5120012;27;20065;-75
2020/12/11 08:36:40;;;;;;;27.00;18.43;;;2.60;80.30;;;;;;5097929;27;20027;-74
2020/12/11 08:39:10;;;;;;;29.03;20.97;;;2.60;80.10;;;;;;5108489;27;20051;-74
2020/12/11 08:41:41;;;;;;;28.87;19.60;;;2.70;80.20;;;;;;5100120;27;20646;-75
2020/12/11 08:44:25;;;;;;;26.87;17.60;;;2.70;80.00;;;;;;5102197;27;20027;-75
2020/12/11 08:49:23;;;;;;;23.13;16.13;;;2.80;80.20;;;;;;5117581;27;20130;-75
2020/12/11 08:51:49;;;;;;;23.60;15.53;;;2.80;79.90;;;;;;5080442;27;20042;-76
2020/12/11 08:54:15;;;;;;;24.33;16.07;;;2.80;79.90;;;;;;5081533;27;20035;-76
2020/12/11 08:56:45;;;;;;;23.33;16.60;;;2.80;79.90;;;;;;5107526;27;20084;-76
2020/12/11 08:59:11;;;;;;;23.93;17.33;;;2.80;79.90;;;;;;5129130;27;20027;-76
2020/12/11 09:01:39;;;;;;;22.13;15.63;;;2.80;79.90;;;;;;5071393;28;20638;-76
2020/12/11 09:04:04;;;;;;;25.07;16.20;;;2.90;80.00;;;;;;5078669;28;20113;-76
2020/12/11 09:06:30;;;;;;;20.87;14.90;;;2.90;79.90;;;;;;5059825;28;20029;-76
2020/12/11 09:08:56;;;;;;;22.87;16.37;;;3.00;80.00;;;;;;5080248;28;20054;-76
2020/12/11 09:11:21;;;;;;;22.17;16.20;;;3.00;79.80;;;;;;5071956;28;20031;-76
2020/12/11 09:13:47;;;;;;;22.97;16.33;;;3.00;79.70;;;;;;5088243;28;20369;-75
2020/12/11 09:16:12;;;;;;;23.07;15.13;;;3.10;79.70;;;;;;5087987;28;20046;-75
2020/12/11 09:18:38;;;;;;;23.33;16.57;;;3.10;79.70;;;;;;5071952;28;20605;-75
2020/12/11 09:21:04;;;;;;;22.40;15.80;;;3.10;79.60;;;;;;5070382;28;20036;-75
2020/12/11 09:23:29;;;;;;;22.03;15.17;;;3.20;79.40;;;;;;5056182;28;20031;-75
2020/12/11 09:25:55;;;;;;;22.33;15.93;;;3.20;79.30;;;;;;5072689;28;20036;-76
2020/12/11 09:28:22;;;;;;;27.63;15.87;;;3.20;79.40;;;;;;5088563;28;20032;-76
2020/12/11 09:30:48;;;;;;;22.80;16.27;;;3.30;79.50;;;;;;5089992;28;20047;-76
2020/12/11 09:33:24;;;;;;;21.23;16.03;;;3.30;79.40;;;;;;5071047;28;20038;-76
2020/12/11 09:35:49;;;;;;;23.93;16.23;;;3.40;79.30;;;;;;5064356;28;20367;-76
2020/12/11 09:38:15;;;;;;;23.07;16.37;;;3.40;79.00;;;;;;5087785;28;20115;-76
2020/12/11 09:40:46;;;;;;;23.67;16.07;;;3.40;79.30;;;;;;5085445;28;20468;-76
2020/12/11 09:46:26;;;;;;;21.63;14.83;;;3.50;79.40;;;;;;5100211;28;20051;-76
2020/12/11 09:48:55;;;;;;;21.73;14.73;;;3.60;79.40;;;;;;5097667;28;20028;-75
2020/12/11 09:56:22;;;;;;;19.80;14.37;;;3.80;79.10;;;;;;5079221;28;20027;-75
2020/12/11 09:58:49;;;;;;;20.27;15.03;;;3.90;78.70;;;;;;5086898;28;20494;-76
2020/12/11 10:01:18;;;;;;;19.77;14.30;;;4.00;78.50;;;;;;5067571;27;20069;-76
2020/12/11 10:03:44;;;;;;;19.73;14.73;;;4.20;78.30;;;;;;5102075;27;20031;-76
2020/12/11 10:06:10;;;;;;;19.80;14.77;;;4.40;77.80;;;;;;5085330;27;20038;-76
2020/12/11 10:08:35;;;;;;;18.97;13.90;;;4.60;76.90;;;;;;5085103;27;20493;-76
2020/12/11 10:11:01;;;;;;;20.90;14.50;;;4.60;76.80;;;;;;5120291;27;20023;-76
2020/12/11 10:13:27;;;;;;;20.83;15.57;;;4.60;77.10;;;;;;5103618;27;20565;-76
2020/12/11 10:15:53;;;;;;;19.80;14.90;;;4.80;77.00;;;;;;5084506;27;20031;-75
2020/12/11 10:18:19;;;;;;;20.47;14.17;;;4.60;76.70;;;;;;5087779;27;20490;-75
2020/12/11 10:20:45;;;;;;;20.33;14.60;;;4.60;77.10;;;;;;5105685;27;20077;-75
2020/12/11 10:23:10;;;;;;;18.83;14.33;;;4.50;77.40;;;;;;5122791;27;20031;-76
2020/12/11 10:25:37;;;;;;;20.43;14.50;;;4.40;77.50;;;;;;5100332;27;20147;-76
2020/12/11 10:28:03;;;;;;;16.67;13.23;;;4.40;78.10;;;;;;5101244;27;20039;-76
2020/12/11 10:30:28;;;;;;;19.00;14.40;;;4.40;78.10;;;;;;5090299;28;20052;-76
2020/12/11 10:32:55;;;;;;;18.60;14.07;;;4.40;78.30;;;;;;5105652;27;20031;-76
2020/12/11 10:35:21;;;;;;;19.23;13.50;;;4.40;78.20;;;;;;5103468;27;20351;-75
2020/12/11 10:37:47;;;;;;;19.30;14.07;;;4.40;77.90;;;;;;5100844;27;20088;-76
2020/12/11 10:40:12;;;;;;;20.53;13.57;;;4.40;77.90;;;;;;5118313;27;20047;-75
2020/12/11 10:42:38;;;;;;;19.83;13.93;;;4.40;78.30;;;;;;5096451;28;20019;-76
2020/12/11 10:45:04;;;;;;;19.57;14.17;;;4.30;77.90;;;;;;5098280;28;20035;-76
2020/12/11 10:47:30;;;;;;;16.77;12.93;;;4.30;78.30;;;;;;5096305;28;20036;-77
2020/12/11 10:49:55;;;;;;;20.43;14.30;;;4.30;78.70;;;;;;5097360;28;20035;-76
2020/12/11 10:52:21;;;;;;;20.70;14.53;;;4.30;78.90;;;;;;5115871;28;20479;-75
2020/12/11 10:54:48;;;;;;;20.20;14.57;;;4.40;78.90;;;;;;5097855;28;20036;-76
2020/12/11 10:57:14;;;;;;;20.37;14.17;;;4.30;79.40;;;;;;5115116;28;20035;-76
2020/12/11 10:59:40;;;;;;;18.87;14.67;;;4.20;80.50;;;;;;5088117;28;20031;-76
2020/12/11 11:02:06;;;;;;;24.17;16.30;;;4.10;81.00;;;;;;5080282;28;20056;-76
2020/12/11 11:04:31;;;;;;;20.00;14.50;;;4.00;82.30;;;;;;5075224;28;20028;-77
2020/12/11 11:07:04;;;;;;;23.13;16.37;;;3.80;82.30;;;;;;5074708;28;20109;-77
2020/12/11 11:09:45;;;;;;;24.73;16.50;;;3.80;83.20;;;;;;5079869;28;20035;-77
2020/12/11 11:12:35;;;;;;;21.80;14.97;;;3.80;84.00;;;;;;5081534;28;20047;-77
2020/12/11 11:23:06;;;;;;;23.58;16.02;;;3.80;84.70;;;;;;5080162;28;20438;-78
2020/12/11 11:27:59;;;;;;;22.00;15.53;;;3.80;84.60;;;;;;5071171;28;20044;-78
2020/12/11 11:30:26;;;;;;;19.23;14.47;;;3.90;84.80;;;;;;5064997;28;20083;-77
2020/12/11 11:32:52;;;;;;;20.17;15.77;;;3.90;84.40;;;;;;5077727;28;20801;-78
2020/12/11 11:35:19;;;;;;;18.50;13.70;;;4.10;84.30;;;;;;5087274;28;20442;-78
2020/12/11 11:37:46;;;;;;;19.37;13.90;;;4.20;84.20;;;;;;5085797;28;20028;-78
2020/12/11 11:40:13;;;;;;;20.87;15.13;;;4.30;83.30;;;;;;5083326;28;20036;-78
2020/12/11 11:42:39;;;;;;;20.07;14.30;;;4.30;82.90;;;;;;5087441;28;20070;-77
2020/12/11 11:45:06;;;;;;;18.07;14.13;;;4.30;83.00;;;;;;5081405;28;20497;-78
2020/12/11 11:47:35;;;;;;;18.00;14.10;;;4.40;82.80;;;;;;5089518;28;20044;-77
2020/12/11 11:50:25;;;;;;;20.23;13.97;;;4.40;82.60;;;;;;5091237;28;20073;-79
2020/12/11 11:55:47;;;;;;;17.37;11.87;;;4.30;82.60;;;;;;5056040;28;20041;-78
2020/12/11 11:58:13;;;;;;;16.63;13.17;;;4.30;82.40;;;;;;5071735;28;20025;-79
2020/12/11 12:00:38;;;;;;;16.70;12.10;;;4.40;82.50;;;;;;5089528;28;20142;-78
2020/12/11 12:03:04;;;;;;;14.47;11.37;;;4.40;82.30;;;;;;5088404;28;20079;-78
2020/12/11 12:05:30;;;;;;;14.03;10.93;;;4.50;82.10;;;;;;5110515;28;20026;-80
2020/12/11 12:07:56;;;;;;;17.93;11.23;;;4.60;81.90;;;;;;5110144;28;20355;-79
2020/12/11 12:10:22;;;;;;;14.03;10.87;;;4.70;81.50;;;;;;5093332;28;20117;-77
2020/12/11 12:12:49;;;;;;;13.60;10.63;;;4.70;81.30;;;;;;5110887;28;20124;-78
2020/12/11 12:15:20;;;;;;;12.57;10.53;;;4.80;80.90;;;;;;5100812;28;20035;-77
2020/12/11 12:20:18;;;;;;;13.57;10.07;;;4.90;80.10;;;;;;5093599;28;20081;-79
2020/12/11 12:28:28;;;;;;;10.83;8.97;;;5.00;79.60;;;;;;5105522;28;20078;-77
2020/12/11 12:30:54;;;;;;;10.50;8.33;;;5.10;79.40;;;;;;5091299;28;20043;-77
2020/12/11 12:43:55;;;;;;;9.70;8.10;;;5.20;79.00;;;;;;5110546;28;20534;-79
2020/12/11 12:46:21;;;;;;;9.80;7.97;;;5.30;79.20;;;;;;5092902;28;20372;-77
2020/12/11 12:48:46;;;;;;;11.27;8.90;;;5.30;79.20;;;;;;5111591;27;20032;-79
2020/12/11 12:51:12;;;;;;;10.77;8.30;;;5.30;79.70;;;;;;5111438;28;20391;-81
2020/12/11 12:53:38;;;;;;;11.07;8.53;;;5.30;79.30;;;;;;5089103;28;20454;-78
2020/12/11 12:58:52;;;;;;;9.23;7.50;;;5.40;79.20;;;;;;5111612;28;20057;-79
2020/12/11 13:01:31;;;;;;;10.33;7.90;;;5.40;79.50;;;;;;5112499;28;20180;-78
2020/12/11 13:04:22;;;;;;;9.40;7.47;;;5.40;79.60;;;;;;5110548;28;20031;-79
2020/12/11 13:06:46;;;;;;;10.00;8.13;;;5.40;79.90;;;;;;5109716;28;20650;-78
2020/12/11 13:09:13;;;;;;;10.73;8.60;;;5.30;80.30;;;;;;5110151;28;20039;-79
2020/12/11 13:11:38;;;;;;;12.07;8.50;;;5.30;80.60;;;;;;5110105;28;20121;-79
2020/12/11 13:14:04;;;;;;;9.27;7.77;;;5.30;80.70;;;;;;5109211;28;20122;-79
2020/12/11 13:16:31;;;;;;;8.07;6.27;;;5.30;81.10;;;;;;5093279;28;20165;-81
2020/12/11 13:18:57;;;;;;;11.43;8.70;;;5.20;80.90;;;;;;5108872;28;20059;-80
2020/12/11 13:21:29;;;;;;;12.50;8.00;;;5.20;81.70;;;;;;5111439;28;20349;-77
2020/12/11 13:26:50;;;;;;;9.87;7.73;;;5.10;81.90;;;;;;5089795;28;20507;-78
2020/12/11 13:29:16;;;;;;;11.97;8.60;;;5.10;82.40;;;;;;5075042;28;20518;-80
2020/12/11 13:31:42;;;;;;;10.40;7.63;;;5.00;82.50;;;;;;5106452;28;20058;-79